Time;durP1;ratioP1;P1;durP2;ratioP2;P2;SDS_P1;SDS_P2;PMS_P1;PMS_P2;Temp;Humidity;BMP_temperature;BMP_pressure;BME280_temperature;BME280_humidity;BME280_pressure;Samples;Min_cycle;Max_cycle;Signal;HPM_P1;HPM_P2
2022/10/07 00:00:45;;;;;;;10.40;2.22;;;9.20;99.90;;;;;;5033822;28;20039;-87
2022/10/07 00:03:10;;;;;;;16.42;2.55;;;9.20;99.90;;;;;;5043867;28;20025;-88
2022/10/07 00:05:36;;;;;;;13.98;2.38;;;9.10;99.90;;;;;;5032127;28;20033;-87
2022/10/07 00:08:01;;;;;;;12.13;2.20;;;9.10;99.90;;;;;;5032331;28;21087;-87
2022/10/07 00:10:28;;;;;;;8.88;2.40;;;9.10;99.90;;;;;;5032800;28;20485;-88
2022/10/07 00:12:54;;;;;;;12.75;2.45;;;9.10;99.90;;;;;;5038183;28;20776;-86
2022/10/07 00:15:20;;;;;;;13.65;2.50;;;9.10;99.90;;;;;;5037679;28;20063;-87
2022/10/07 00:17:45;;;;;;;14.18;3.00;;;9.00;99.90;;;;;;5035191;28;20037;-88
2022/10/07 00:20:11;;;;;;;12.88;2.33;;;9.00;99.90;;;;;;5033348;28;20116;-88
2022/10/07 00:22:36;;;;;;;16.08;3.05;;;9.00;99.90;;;;;;5033863;28;20068;-88
2022/10/07 00:25:03;;;;;;;8.80;2.33;;;9.00;99.90;;;;;;5037451;28;20038;-88
2022/10/07 00:27:29;;;;;;;20.25;2.72;;;9.00;99.90;;;;;;5035394;28;20048;-87
2022/10/07 00:29:55;;;;;;;13.65;2.45;;;9.00;99.90;;;;;;5037504;28;20034;-87
2022/10/07 00:32:20;;;;;;;14.20;2.80;;;9.00;99.90;;;;;;5035485;28;20037;-87
2022/10/07 00:34:46;;;;;;;13.40;2.33;;;9.00;99.90;;;;;;5036643;28;20068;-86
2022/10/07 00:37:11;;;;;;;13.60;2.97;;;9.00;99.90;;;;;;5039169;28;20029;-87
2022/10/07 00:39:37;;;;;;;12.80;2.92;;;9.00;99.90;;;;;;5032735;28;20025;-87
2022/10/07 00:42:02;;;;;;;11.70;2.28;;;9.00;99.90;;;;;;5034561;28;20036;-87
2022/10/07 00:44:31;;;;;;;7.82;2.20;;;8.90;99.90;;;;;;5029503;28;20021;-87
2022/10/07 00:47:02;;;;;;;8.70;2.10;;;9.00;99.90;;;;;;5040643;28;20592;-87
2022/10/07 00:49:29;;;;;;;12.65;2.22;;;9.00;99.90;;;;;;5035885;28;20038;-87
2022/10/07 00:51:56;;;;;;;16.20;2.50;;;8.90;99.90;;;;;;5031864;28;20018;-87
2022/10/07 00:54:22;;;;;;;12.13;2.03;;;8.90;99.90;;;;;;5032161;28;20037;-88
2022/10/07 00:56:49;;;;;;;9.93;2.30;;;8.90;99.90;;;;;;5036295;28;20021;-87
2022/10/07 00:59:16;;;;;;;11.93;2.58;;;8.90;99.90;;;;;;5034597;28;20025;-87
2022/10/07 01:01:42;;;;;;;11.52;2.53;;;8.90;99.90;;;;;;5031161;28;20029;-87
2022/10/07 01:04:09;;;;;;;13.88;2.83;;;8.90;99.90;;;;;;5030980;28;20029;-87
2022/10/07 01:06:38;;;;;;;13.07;2.50;;;8.90;99.90;;;;;;5030733;28;20025;-88
2022/10/07 01:09:08;;;;;;;17.40;2.97;;;8.90;99.90;;;;;;5030883;28;20073;-84
2022/10/07 01:11:39;;;;;;;12.68;2.45;;;8.90;99.90;;;;;;5031630;28;20106;-87
2022/10/07 01:14:37;;;;;;;16.35;2.50;;;8.90;99.90;;;;;;5032241;28;20029;-87
2022/10/07 01:17:14;;;;;;;14.77;2.42;;;8.90;99.90;;;;;;5035316;28;20022;-87
2022/10/07 01:19:52;;;;;;;12.18;2.58;;;8.90;99.90;;;;;;5047834;28;20138;-87
2022/10/07 01:22:42;;;;;;;16.17;2.78;;;8.80;99.90;;;;;;5035527;28;20029;-87
2022/10/07 01:25:50;;;;;;;14.93;2.75;;;8.90;99.90;;;;;;5030915;28;20061;-87
2022/10/07 01:28:32;;;;;;;16.58;2.80;;;8.90;99.90;;;;;;5026331;28;20076;-87
2022/10/07 01:31:00;;;;;;;;;;;8.80;99.90;;;;;;5036080;28;20108;-87
2022/10/07 01:33:31;;;;;;;13.98;2.60;;;8.70;99.90;;;;;;5030954;28;19917;-87
2022/10/07 01:36:02;;;;;;;14.65;2.60;;;8.70;99.90;;;;;;5037414;28;20071;-86
2022/10/07 01:38:29;;;;;;;9.05;2.30;;;8.60;99.90;;;;;;5034538;28;20040;-88
2022/10/07 01:41:04;;;;;;;7.68;2.13;;;8.60;99.90;;;;;;5048102;28;20018;-87
2022/10/07 01:43:31;;;;;;;12.23;2.20;;;8.60;99.90;;;;;;5035258;28;20108;-88
2022/10/07 01:45:57;;;;;;;15.65;2.65;;;8.60;99.90;;;;;;5034453;28;20073;-87
2022/10/07 01:48:23;;;;;;;19.33;2.70;;;8.60;99.90;;;;;;5033865;28;20503;-87
2022/10/07 01:50:50;;;;;;;15.82;2.53;;;8.60;99.90;;;;;;5035954;28;20022;-86
2022/10/07 01:53:30;;;;;;;9.98;1.98;;;8.70;99.90;;;;;;5035603;28;20073;-87
2022/10/07 01:56:18;;;;;;;17.50;3.00;;;8.70;99.90;;;;;;5036595;28;20036;-86
2022/10/07 01:59:16;;;;;;;15.15;2.10;;;8.60;99.90;;;;;;5032782;28;20026;-87
2022/10/07 02:02:02;;;;;;;12.73;2.08;;;8.60;99.90;;;;;;5031998;28;20032;-87
2022/10/07 02:04:44;;;;;;;15.75;2.58;;;8.60;99.90;;;;;;5039782;28;20025;-87
2022/10/07 02:07:30;;;;;;;10.00;2.30;;;8.50;99.90;;;;;;5032126;28;20031;-87
2022/10/07 02:10:25;;;;;;;9.75;1.80;;;8.50;99.90;;;;;;5031758;28;20086;-86
2022/10/07 02:13:10;;;;;;;10.52;2.15;;;8.50;99.90;;;;;;5035478;28;20024;-85
2022/10/07 02:15:57;;;;;;;11.43;2.13;;;8.50;99.90;;;;;;5031352;28;20022;-87
2022/10/07 02:18:27;;;;;;;10.80;1.88;;;8.50;99.90;;;;;;5033356;28;20032;-86
2022/10/07 02:20:54;;;;;;;11.95;2.35;;;8.40;99.90;;;;;;5036350;28;20064;-86
2022/10/07 02:23:22;;;;;;;10.80;2.47;;;8.40;99.90;;;;;;5031746;28;20505;-87
2022/10/07 02:25:51;;;;;;;16.98;2.20;;;8.40;99.90;;;;;;5033846;28;20029;-87
2022/10/07 02:28:20;;;;;;;11.88;2.47;;;8.40;99.90;;;;;;5034470;28;20060;-87
2022/10/07 02:30:52;;;;;;;12.93;2.13;;;8.30;99.90;;;;;;5035116;28;20048;-87
2022/10/07 02:33:19;;;;;;;9.52;2.65;;;8.40;99.90;;;;;;5032401;28;20098;-87
2022/10/07 02:35:51;;;;;;;9.82;2.17;;;8.40;99.90;;;;;;5035031;28;20077;-87
2022/10/07 02:38:17;;;;;;;13.60;2.00;;;8.40;99.90;;;;;;5036684;28;20044;-84
2022/10/07 02:41:13;;;;;;;13.43;2.33;;;8.40;99.90;;;;;;5036838;28;20124;-87
2022/10/07 02:43:55;;;;;;;12.25;2.42;;;8.40;99.90;;;;;;5034694;28;20076;-87
2022/10/07 02:46:34;;;;;;;10.35;2.70;;;8.40;99.90;;;;;;5031112;28;20021;-87
2022/10/07 02:49:05;;;;;;;14.07;2.10;;;8.50;99.90;;;;;;5038178;28;20505;-87
2022/10/07 02:51:45;;;;;;;12.32;1.92;;;8.40;99.90;;;;;;5033036;28;20075;-86
2022/10/07 02:54:12;;;;;;;13.38;2.35;;;8.40;99.90;;;;;;5031722;28;20022;-85
2022/10/07 02:56:40;;;;;;;13.20;2.10;;;8.40;99.90;;;;;;5044141;28;20029;-85
2022/10/07 02:59:09;;;;;;;11.38;2.50;;;8.30;99.90;;;;;;5029929;28;20043;-86
2022/10/07 03:01:41;;;;;;;14.95;2.65;;;8.40;99.90;;;;;;5034900;28;20574;-87
2022/10/07 03:04:06;;;;;;;9.38;2.15;;;8.30;99.90;;;;;;5035685;28;20045;-87
2022/10/07 03:06:34;;;;;;;17.75;2.33;;;8.30;99.90;;;;;;5036165;28;20034;-87
2022/10/07 03:09:01;;;;;;;13.30;2.85;;;8.30;99.90;;;;;;5027205;28;20045;-87
2022/10/07 03:11:27;;;;;;;16.10;2.72;;;8.30;99.90;;;;;;5029193;28;20025;-87
2022/10/07 03:13:53;;;;;;;13.65;2.78;;;8.40;99.90;;;;;;5036073;28;20539;-87
2022/10/07 03:16:18;;;;;;;10.48;2.08;;;8.30;99.90;;;;;;5039689;28;20025;-87
2022/10/07 03:18:44;;;;;;;14.57;2.55;;;8.30;99.90;;;;;;5031189;28;21025;-86
2022/10/07 03:21:09;;;;;;;12.50;2.90;;;8.30;99.90;;;;;;5033699;28;20036;-87
2022/10/07 03:23:35;;;;;;;13.70;2.58;;;8.30;99.90;;;;;;5032069;28;20120;-87
2022/10/07 03:26:00;;;;;;;13.27;2.63;;;8.30;99.90;;;;;;5029962;28;20034;-87
2022/10/07 03:28:28;;;;;;;11.43;2.38;;;8.30;99.90;;;;;;5033418;28;20041;-87
2022/10/07 03:31:02;;;;;;;14.25;1.92;;;8.30;99.90;;;;;;5032500;28;20050;-86
2022/10/07 03:33:27;;;;;;;13.82;2.63;;;8.30;99.90;;;;;;5033425;28;21963;-87
2022/10/07 03:35:53;;;;;;;9.45;2.63;;;8.30;99.90;;;;;;5031757;28;20103;-87
2022/10/07 03:38:18;;;;;;;15.95;2.85;;;8.30;99.90;;;;;;5029540;28;20112;-86
2022/10/07 03:40:44;;;;;;;12.68;2.55;;;8.30;99.90;;;;;;5036042;28;20045;-87
2022/10/07 03:43:09;;;;;;;12.25;2.70;;;8.30;99.90;;;;;;5030949;28;20068;-87
2022/10/07 03:45:42;;;;;;;20.35;2.58;;;8.30;99.90;;;;;;5028592;28;20033;-87
2022/10/07 03:48:07;;;;;;;;;;;8.30;99.90;;;;;;5031289;28;21915;-87
2022/10/07 03:50:33;;;;;;;11.60;2.40;;;8.20;99.90;;;;;;5031332;28;19924;-87
2022/10/07 03:52:59;;;;;;;13.43;2.35;;;8.20;99.90;;;;;;5029857;28;20029;-86
2022/10/07 03:55:24;;;;;;;18.50;2.67;;;8.20;99.90;;;;;;5031005;28;20029;-87
2022/10/07 03:57:50;;;;;;;13.95;1.88;;;8.20;99.90;;;;;;5035091;28;20028;-86
2022/10/07 04:00:18;;;;;;;16.23;2.90;;;8.20;99.90;;;;;;5036483;28;20994;-87
2022/10/07 04:02:43;;;;;;;7.68;2.30;;;8.20;99.90;;;;;;5047748;28;20029;-87
2022/10/07 04:05:09;;;;;;;10.57;2.60;;;8.20;99.90;;;;;;5037598;28;20033;-86
2022/10/07 04:07:35;;;;;;;20.55;3.60;;;8.10;99.90;;;;;;5040797;28;20091;-87
2022/10/07 04:10:00;;;;;;;18.65;3.22;;;8.10;99.90;;;;;;5033295;28;20032;-87
2022/10/07 04:12:27;;;;;;;18.02;2.63;;;8.10;99.90;;;;;;5035081;28;20040;-87
2022/10/07 04:14:53;;;;;;;16.27;2.85;;;8.10;99.90;;;;;;5036035;28;20045;-86
2022/10/07 04:17:18;;;;;;;15.05;2.53;;;8.10;99.90;;;;;;5034588;28;20048;-86
2022/10/07 04:19:44;;;;;;;12.82;2.65;;;8.10;99.90;;;;;;5050620;28;20127;-86
2022/10/07 04:22:10;;;;;;;16.73;2.63;;;8.10;99.90;;;;;;5037924;28;20051;-87
2022/10/07 04:24:35;;;;;;;14.52;2.70;;;8.10;99.90;;;;;;5033039;28;20029;-87
2022/10/07 04:27:03;;;;;;;20.88;2.90;;;8.10;99.90;;;;;;5037818;28;20029;-87
2022/10/07 04:29:29;;;;;;;14.32;2.13;;;8.10;99.90;;;;;;5031957;28;20054;-86
2022/10/07 04:31:57;;;;;;;20.58;3.03;;;8.10;99.90;;;;;;5031979;28;20049;-86
2022/10/07 04:34:23;;;;;;;18.10;3.10;;;8.10;99.90;;;;;;5034231;28;20405;-87
2022/10/07 04:36:50;;;;;;;8.63;1.90;;;8.10;99.90;;;;;;5031061;28;20036;-86
2022/10/07 04:39:16;;;;;;;16.67;3.55;;;8.10;99.90;;;;;;5037899;28;20030;-87
2022/10/07 04:41:41;;;;;;;16.67;2.55;;;8.10;99.90;;;;;;5040739;28;20664;-86
2022/10/07 04:44:07;;;;;;;10.07;2.95;;;8.10;99.90;;;;;;5033895;28;20022;-86
2022/10/07 04:46:32;;;;;;;11.18;3.30;;;8.10;99.90;;;;;;5038667;28;20407;-86
2022/10/07 04:48:58;;;;;;;22.08;2.97;;;8.10;99.90;;;;;;5034069;28;20037;-86
2022/10/07 04:51:24;;;;;;;14.13;2.63;;;8.10;99.90;;;;;;5035105;28;22633;-87
2022/10/07 04:53:53;;;;;;;16.55;2.45;;;8.10;99.90;;;;;;5035267;28;20028;-86
2022/10/07 04:56:18;;;;;;;16.48;2.65;;;8.10;99.90;;;;;;5038249;28;20724;-86
2022/10/07 04:58:44;;;;;;;13.43;2.40;;;8.10;99.90;;;;;;5038735;28;20022;-87
2022/10/07 05:01:10;;;;;;;16.10;3.30;;;8.10;99.90;;;;;;5030603;28;20040;-87
2022/10/07 05:03:37;;;;;;;15.32;2.88;;;8.10;99.90;;;;;;5033428;28;20030;-87
2022/10/07 05:06:03;;;;;;;13.55;2.67;;;8.10;99.90;;;;;;5039533;28;20024;-86
2022/10/07 05:08:29;;;;;;;13.85;2.67;;;8.10;99.90;;;;;;5035196;28;20045;-87
2022/10/07 05:10:55;;;;;;;17.38;2.67;;;8.10;99.90;;;;;;5033740;28;20029;-87
2022/10/07 05:13:23;;;;;;;14.15;2.42;;;8.10;99.90;;;;;;5048474;28;20051;-88
2022/10/07 05:15:56;;;;;;;14.30;2.50;;;8.10;99.90;;;;;;5046609;28;20223;-87
2022/10/07 05:18:25;;;;;;;15.13;2.47;;;8.10;99.90;;;;;;5052883;28;20029;-87
2022/10/07 05:20:51;;;;;;;14.45;2.80;;;8.10;99.90;;;;;;5053212;28;20453;-87
2022/10/07 05:23:19;;;;;;;19.42;2.85;;;8.10;99.90;;;;;;5042994;28;20035;-87
2022/10/07 05:25:45;;;;;;;20.42;3.50;;;8.10;99.90;;;;;;5052419;28;20017;-86
2022/10/07 05:28:13;;;;;;;18.08;3.08;;;8.10;99.90;;;;;;5049143;28;20088;-87
2022/10/07 05:30:40;;;;;;;16.02;2.50;;;8.00;99.90;;;;;;5039811;28;20038;-86
2022/10/07 05:33:06;;;;;;;14.02;3.00;;;8.00;99.90;;;;;;5052306;28;20059;-87
2022/10/07 05:35:32;;;;;;;8.15;2.17;;;7.90;99.90;;;;;;5042513;28;20061;-86
2022/10/07 05:37:58;;;;;;;20.50;3.10;;;7.90;99.90;;;;;;5047107;28;20029;-87
2022/10/07 05:40:24;;;;;;;14.02;2.53;;;7.90;99.90;;;;;;5046840;28;20424;-87
2022/10/07 05:42:50;;;;;;;20.85;3.17;;;7.90;99.90;;;;;;5049741;28;20025;-87
2022/10/07 05:45:15;;;;;;;13.05;2.13;;;7.90;99.90;;;;;;5043473;28;20032;-87
2022/10/07 05:47:41;;;;;;;19.33;2.67;;;7.90;99.90;;;;;;5038654;28;20056;-87
2022/10/07 05:50:07;;;;;;;17.17;3.25;;;7.90;99.90;;;;;;5034181;28;20054;-87
2022/10/07 05:52:34;;;;;;;14.85;3.03;;;7.90;99.90;;;;;;5036424;28;20029;-86
2022/10/07 05:55:00;;;;;;;20.20;2.70;;;7.80;99.90;;;;;;5035345;28;20026;-87
2022/10/07 05:57:25;;;;;;;15.90;2.85;;;7.90;99.90;;;;;;5039588;28;20496;-87
2022/10/07 05:59:51;;;;;;;14.48;2.65;;;7.90;99.90;;;;;;5036874;28;20076;-87
2022/10/07 06:02:20;;;;;;;11.18;2.42;;;7.90;99.90;;;;;;5039997;28;20386;-87
2022/10/07 06:04:46;;;;;;;12.73;2.53;;;7.90;99.90;;;;;;5037930;28;20060;-86
2022/10/07 06:07:12;;;;;;;11.85;2.70;;;7.90;99.90;;;;;;5034783;28;20036;-87
2022/10/07 06:15:08;;;;;;;19.92;2.58;;;8.00;99.90;;;;;;5037553;28;20087;-86
2022/10/07 06:17:35;;;;;;;14.45;2.35;;;8.10;99.90;;;;;;5042052;28;20016;-88
2022/10/07 06:20:00;;;;;;;10.13;2.10;;;8.10;99.90;;;;;;5048057;28;20409;-88
2022/10/07 06:22:26;;;;;;;14.65;2.70;;;8.10;99.90;;;;;;5049590;28;20025;-88
2022/10/07 06:24:56;;;;;;;11.05;2.13;;;8.20;99.90;;;;;;5051316;28;20035;-88
2022/10/07 06:27:23;;;;;;;15.32;3.30;;;8.20;99.90;;;;;;5042081;28;20055;-88
2022/10/07 06:29:49;;;;;;;16.73;2.35;;;8.30;99.90;;;;;;5048036;28;20033;-87
2022/10/07 06:32:14;;;;;;;12.82;2.70;;;8.30;99.90;;;;;;5047454;28;20048;-88
2022/10/07 06:34:40;;;;;;;14.82;2.25;;;8.40;99.90;;;;;;5044995;28;20029;-87
2022/10/07 06:37:05;;;;;;;19.88;2.65;;;8.50;99.90;;;;;;5051125;28;20029;-88
2022/10/07 06:39:31;;;;;;;15.07;2.63;;;8.50;99.90;;;;;;5050413;28;20064;-88
2022/10/07 06:41:56;;;;;;;17.75;3.35;;;8.60;99.90;;;;;;5046831;28;20025;-86
2022/10/07 06:44:22;;;;;;;17.25;2.70;;;8.60;99.90;;;;;;5051071;28;20028;-88
2022/10/07 06:46:47;;;;;;;15.18;2.78;;;8.70;99.90;;;;;;5048903;28;20029;-88
2022/10/07 06:49:13;;;;;;;14.07;2.53;;;8.80;99.90;;;;;;5035240;28;20123;-89
2022/10/07 06:51:38;;;;;;;15.77;2.60;;;8.80;99.90;;;;;;5029996;28;20026;-87
2022/10/07 06:54:04;;;;;;;19.20;2.58;;;8.90;99.90;;;;;;5029460;28;20114;-88
2022/10/07 06:56:29;;;;;;;20.55;3.10;;;8.90;99.90;;;;;;5028339;28;20087;-88
2022/10/07 06:58:55;;;;;;;16.02;3.03;;;9.00;99.90;;;;;;5031888;28;20438;-88
2022/10/07 07:01:21;;;;;;;17.25;3.90;;;9.10;99.90;;;;;;5029074;28;20787;-88
2022/10/07 07:03:46;;;;;;;14.50;3.28;;;9.20;99.90;;;;;;5031998;28;20520;-88
2022/10/07 07:06:12;;;;;;;13.85;2.72;;;9.20;99.90;;;;;;5027136;28;20108;-88
2022/10/07 07:08:39;;;;;;;14.48;2.85;;;9.30;99.90;;;;;;5029499;28;20041;-88
2022/10/07 07:11:34;;;;;;;20.73;4.20;;;9.40;99.90;;;;;;5029732;28;20020;-88
2022/10/07 07:13:54;;;;;;;15.07;3.70;;;9.50;99.90;;;;;;5029993;28;20029;-88
2022/10/07 07:16:20;;;;;;;21.95;3.45;;;9.60;99.90;;;;;;5039502;28;20025;-88
2022/10/07 07:18:57;;;;;;;19.63;3.53;;;9.80;99.90;;;;;;5040854;28;20048;-88
2022/10/07 07:21:24;;;;;;;17.75;3.53;;;9.90;99.90;;;;;;5041178;28;20032;-88
2022/10/07 07:23:50;;;;;;;13.90;3.47;;;10.00;99.90;;;;;;5047103;28;20128;-88
2022/10/07 07:26:17;;;;;;;19.00;3.55;;;10.00;99.90;;;;;;5048283;28;20021;-88
2022/10/07 07:28:43;;;;;;;19.05;2.75;;;10.10;99.90;;;;;;5049527;28;20039;-88
2022/10/07 07:31:11;;;;;;;22.35;3.50;;;10.30;99.90;;;;;;5045180;28;20084;-88
2022/10/07 07:33:37;;;;;;;15.15;2.35;;;10.30;99.90;;;;;;5042886;28;20127;-88
2022/10/07 07:36:23;;;;;;;13.52;2.00;;;10.50;99.90;;;;;;5047397;28;20567;-88
2022/10/07 07:38:54;;;;;;;11.73;2.55;;;10.60;99.90;;;;;;5052391;28;20086;-88
2022/10/07 07:41:22;;;;;;;15.35;3.08;;;10.70;99.90;;;;;;5048374;28;20559;-88
2022/10/07 07:43:50;;;;;;;16.13;2.42;;;10.80;99.90;;;;;;5058902;28;20555;-88
2022/10/07 07:46:17;;;;;;;14.23;2.20;;;10.90;99.90;;;;;;5048966;28;20025;-87
2022/10/07 07:48:42;;;;;;;8.77;1.60;;;10.80;99.90;;;;;;5044084;28;20056;-88
2022/10/07 07:51:08;;;;;;;14.50;1.70;;;10.80;99.90;;;;;;5068265;28;20473;-88
2022/10/07 07:53:36;;;;;;;15.70;2.45;;;10.90;99.90;;;;;;5046603;28;20399;-88
2022/10/07 07:56:02;;;;;;;11.18;1.70;;;10.90;99.90;;;;;;5051669;28;20035;-88
2022/10/07 07:58:28;;;;;;;14.40;2.50;;;11.10;99.90;;;;;;5051668;28;20021;-88
2022/10/07 08:01:09;;;;;;;13.70;1.95;;;11.20;99.90;;;;;;5046665;28;20076;-88
2022/10/07 08:03:39;;;;;;;16.42;2.00;;;11.40;99.90;;;;;;5042472;28;20029;-88
2022/10/07 08:06:06;;;;;;;14.75;2.10;;;11.50;99.90;;;;;;5050789;28;20396;-88
2022/10/07 08:08:33;;;;;;;12.30;2.03;;;11.70;99.90;;;;;;5042333;28;20067;-89
2022/10/07 08:11:06;;;;;;;7.15;2.08;;;11.80;99.90;;;;;;5047363;28;20029;-87
2022/10/07 08:13:32;;;;;;;11.30;1.65;;;12.00;99.90;;;;;;5051286;28;20033;-87
2022/10/07 08:15:58;;;;;;;12.95;1.58;;;12.10;99.90;;;;;;5053233;28;20102;-87
2022/10/07 08:18:24;;;;;;;11.13;1.63;;;12.20;99.90;;;;;;5054437;28;20025;-87
2022/10/07 08:21:02;;;;;;;11.18;1.60;;;12.40;99.90;;;;;;5050422;28;20029;-87
2022/10/07 08:23:29;;;;;;;19.58;1.83;;;12.50;99.90;;;;;;5051977;28;20550;-87
2022/10/07 08:25:55;;;;;;;10.15;2.10;;;12.70;99.90;;;;;;5067594;28;20025;-87
2022/10/07 08:28:22;;;;;;;15.32;2.05;;;12.90;99.90;;;;;;5048805;28;20041;-88
2022/10/07 08:30:49;;;;;;;13.27;2.00;;;13.00;99.90;;;;;;5050212;28;20154;-88
2022/10/07 08:33:18;;;;;;;21.35;2.22;;;13.00;99.90;;;;;;5048534;28;20029;-88
2022/10/07 08:36:12;;;;;;;16.80;2.05;;;13.10;99.90;;;;;;5041465;28;20468;-88
2022/10/07 08:38:39;;;;;;;11.20;2.03;;;13.20;99.90;;;;;;5050266;28;20065;-88
2022/10/07 08:41:32;;;;;;;9.35;1.40;;;13.30;99.90;;;;;;5051418;28;20021;-89
2022/10/07 08:44:05;;;;;;;15.63;1.88;;;13.40;99.90;;;;;;5054160;28;20021;-88
2022/10/07 08:46:34;;;;;;;13.75;1.48;;;13.50;99.90;;;;;;5047972;28;20025;-88
2022/10/07 08:49:08;;;;;;;14.05;1.92;;;13.60;99.90;;;;;;5062491;28;20123;-88
2022/10/07 08:52:02;;;;;;;10.52;1.50;;;13.80;99.90;;;;;;5052241;28;20078;-89
2022/10/07 08:54:32;;;;;;;14.35;1.52;;;13.90;99.90;;;;;;5051634;28;20028;-89
2022/10/07 08:57:08;;;;;;;13.93;1.77;;;14.10;99.90;;;;;;5052101;28;20504;-89
2022/10/07 08:59:35;;;;;;;10.63;2.00;;;14.20;99.90;;;;;;5044151;28;20030;-88
2022/10/07 09:02:30;;;;;;;9.68;1.77;;;14.40;99.90;;;;;;5044169;28;20029;-88
2022/10/07 09:05:32;;;;;;;14.75;1.15;;;14.60;99.90;;;;;;5052296;28;20104;-89
2022/10/07 09:08:03;;;;;;;11.55;1.80;;;14.90;99.90;;;;;;5007248;28;20056;-89
2022/10/07 09:10:43;;;;;;;15.50;1.70;;;15.00;99.90;;;;;;5043947;28;20044;-88
2022/10/07 09:13:41;;;;;;;8.48;1.20;;;15.20;99.90;;;;;;5047049;28;20472;-88
2022/10/07 09:16:19;;;;;;;10.98;1.60;;;15.20;99.90;;;;;;5036173;28;20033;-88
2022/10/07 09:18:52;;;;;;;11.15;1.00;;;15.30;99.90;;;;;;5039243;28;20028;-88
2022/10/07 09:21:24;;;;;;;;;;;15.40;99.90;;;;;;5049558;28;20032;-89
2022/10/07 09:24:20;;;;;;;18.67;2.08;;;15.40;99.90;;;;;;5049679;28;19923;-88
2022/10/07 09:26:46;;;;;;;8.57;1.30;;;15.50;99.90;;;;;;5051932;28;20480;-88
2022/10/07 09:29:12;;;;;;;8.60;1.23;;;15.60;99.90;;;;;;5053824;28;20389;-87
2022/10/07 09:31:38;;;;;;;14.50;1.20;;;15.70;99.90;;;;;;5041402;28;20057;-87
2022/10/07 09:34:05;;;;;;;11.35;1.30;;;15.80;99.90;;;;;;5040518;28;20772;-87
2022/10/07 09:36:30;;;;;;;8.55;1.20;;;15.90;99.90;;;;;;5041226;28;20396;-87
2022/10/07 09:39:14;;;;;;;11.15;1.20;;;15.90;99.90;;;;;;5039908;28;20033;-88
2022/10/07 09:41:40;;;;;;;12.85;1.25;;;16.00;99.90;;;;;;5032990;28;20492;-88
2022/10/07 09:44:18;;;;;;;9.63;1.00;;;16.10;99.90;;;;;;5048672;28;20024;-88
2022/10/07 09:46:50;;;;;;;8.88;0.80;;;16.10;99.90;;;;;;5040952;28;20115;-87
2022/10/07 09:49:30;;;;;;;10.32;0.93;;;16.20;99.90;;;;;;5034654;28;20044;-87
2022/10/07 09:52:05;;;;;;;10.50;0.80;;;16.30;99.90;;;;;;5041290;28;20087;-87
2022/10/07 09:54:33;;;;;;;9.60;0.82;;;16.30;99.90;;;;;;5040480;28;20093;-87
2022/10/07 09:57:02;;;;;;;7.70;1.23;;;16.40;99.90;;;;;;5040965;28;20125;-87
2022/10/07 09:59:30;;;;;;;9.55;0.95;;;16.50;99.90;;;;;;5049757;28;20028;-87
2022/10/07 10:02:14;;;;;;;10.88;0.80;;;16.70;99.90;;;;;;5052359;28;20483;-87
2022/10/07 10:04:52;;;;;;;10.88;1.23;;;16.70;99.90;;;;;;5050061;28;20029;-87
2022/10/07 10:07:23;;;;;;;8.48;1.10;;;16.80;99.90;;;;;;5052469;28;20017;-88
2022/10/07 10:09:50;;;;;;;8.88;0.70;;;16.90;99.90;;;;;;5048176;28;20041;-88
2022/10/07 10:12:18;;;;;;;11.30;0.82;;;16.90;99.90;;;;;;5032700;28;20025;-88
2022/10/07 10:14:50;;;;;;;10.50;0.90;;;17.00;99.90;;;;;;5044629;28;20025;-87
2022/10/07 10:17:39;;;;;;;9.48;1.02;;;17.10;99.90;;;;;;5051890;28;20112;-88
2022/10/07 10:20:22;;;;;;;10.45;0.77;;;17.00;99.90;;;;;;5044092;28;20040;-87
2022/10/07 10:22:49;;;;;;;12.65;1.20;;;17.10;99.90;;;;;;5046130;28;20057;-88
2022/10/07 10:28:31;;;;;;;8.02;0.70;;;17.20;99.90;;;;;;5038675;28;20094;-87
2022/10/07 10:31:06;;;;;;;9.57;0.77;;;17.30;99.90;;;;;;5039858;28;20052;-87
2022/10/07 10:33:45;;;;;;;11.20;0.98;;;17.40;99.90;;;;;;5041959;28;20068;-87
2022/10/07 10:36:26;;;;;;;8.60;0.93;;;17.40;99.90;;;;;;5040125;28;20030;-87
2022/10/07 10:39:12;;;;;;;7.63;0.90;;;17.40;99.90;;;;;;5042929;28;20025;-86
2022/10/07 10:41:52;;;;;;;8.05;0.75;;;17.50;99.90;;;;;;5045795;28;20083;-87
2022/10/07 10:44:20;;;;;;;10.75;0.57;;;17.50;99.90;;;;;;5061438;28;20362;-87
2022/10/07 10:46:55;;;;;;;7.30;0.68;;;17.50;99.90;;;;;;5046660;28;20020;-87
2022/10/07 10:49:53;;;;;;;8.13;0.80;;;17.50;99.90;;;;;;5050088;28;20369;-87
2022/10/07 10:52:33;;;;;;;8.30;0.70;;;17.60;99.90;;;;;;5050384;28;20028;-87
2022/10/07 10:55:32;;;;;;;7.10;0.90;;;17.50;99.90;;;;;;5050556;28;20544;-88
2022/10/07 10:58:41;;;;;;;9.30;0.70;;;17.50;99.90;;;;;;5041174;28;20077;-87
2022/10/07 11:01:39;;;;;;;5.70;0.70;;;17.50;99.90;;;;;;5004931;28;20078;-87
2022/10/07 11:04:40;;;;;;;9.32;0.70;;;17.40;99.90;;;;;;5038609;28;20028;-87
2022/10/07 11:07:29;;;;;;;8.93;0.77;;;17.30;99.90;;;;;;5029963;28;20045;-87
2022/10/07 11:10:00;;;;;;;7.05;0.68;;;17.30;99.90;;;;;;5045055;28;20045;-87
2022/10/07 11:12:38;;;;;;;7.35;1.00;;;17.30;99.90;;;;;;5042897;28;20024;-87
2022/10/07 11:15:20;;;;;;;8.63;1.10;;;17.40;99.90;;;;;;5050226;28;21069;-86
2022/10/07 11:17:48;;;;;;;9.52;0.75;;;17.40;99.90;;;;;;5049302;28;20028;-87
2022/10/07 11:20:26;;;;;;;11.60;1.10;;;17.50;99.90;;;;;;5054760;28;20033;-87
2022/10/07 11:22:57;;;;;;;8.73;0.88;;;17.50;99.90;;;;;;5051242;28;20029;-86
2022/10/07 11:25:32;;;;;;;5.57;0.60;;;17.50;99.90;;;;;;5050304;28;20070;-87
2022/10/07 11:28:10;;;;;;;9.95;0.90;;;17.60;99.90;;;;;;5053994;28;20397;-88
2022/10/07 11:30:46;;;;;;;12.48;1.23;;;17.60;99.80;;;;;;5070757;28;20041;-87
2022/10/07 11:33:30;;;;;;;9.15;0.70;;;17.70;99.70;;;;;;5052056;28;20120;-88
2022/10/07 11:36:11;;;;;;;8.98;0.60;;;17.80;99.20;;;;;;5046129;28;20029;-87
2022/10/07 11:38:37;;;;;;;6.10;1.05;;;17.80;99.40;;;;;;5041091;28;20388;-88
2022/10/07 11:41:26;;;;;;;4.03;0.60;;;17.80;99.30;;;;;;5051698;28;20025;-88
2022/10/07 11:43:57;;;;;;;7.63;0.80;;;17.90;99.10;;;;;;5043736;28;20087;-88
2022/10/07 11:46:32;;;;;;;5.43;0.63;;;17.90;99.10;;;;;;5048576;28;20159;-88
2022/10/07 11:49:07;;;;;;;6.20;0.80;;;18.00;99.00;;;;;;5040619;28;20068;-87
2022/10/07 11:51:57;;;;;;;4.05;0.40;;;18.00;98.60;;;;;;5053744;28;20477;-87
2022/10/07 11:54:26;;;;;;;9.43;0.43;;;18.00;98.60;;;;;;5054701;28;20403;-88
2022/10/07 11:56:56;;;;;;;6.80;0.50;;;18.10;98.40;;;;;;5058938;28;20017;-88
2022/10/07 11:59:44;;;;;;;7.82;0.68;;;18.10;98.10;;;;;;5044474;28;20032;-87
2022/10/07 12:02:31;;;;;;;7.03;0.90;;;18.10;98.10;;;;;;5051330;28;20179;-87
2022/10/07 12:04:58;;;;;;;8.00;0.95;;;18.20;98.00;;;;;;5055133;28;20029;-89
2022/10/07 12:07:35;;;;;;;6.63;0.60;;;18.20;98.00;;;;;;5052445;28;20028;-87
2022/10/07 12:10:02;;;;;;;6.40;0.60;;;18.30;97.70;;;;;;5052220;28;20090;-87
2022/10/07 12:12:45;;;;;;;7.90;1.00;;;18.30;97.60;;;;;;5050873;28;20017;-88
2022/10/07 12:15:38;;;;;;;8.07;0.75;;;18.30;97.20;;;;;;5052070;28;20032;-88
2022/10/07 12:18:03;;;;;;;;;;;18.40;97.10;;;;;;5041202;28;20064;-88
2022/10/07 12:20:41;;;;;;;9.15;0.60;;;18.40;97.30;;;;;;5043638;28;19955;-88
2022/10/07 12:23:17;;;;;;;8.60;0.60;;;18.50;97.20;;;;;;5037206;28;20047;-88
2022/10/07 12:25:45;;;;;;;5.95;0.70;;;18.50;96.80;;;;;;5049713;28;20024;-88
2022/10/07 12:28:40;;;;;;;7.35;0.50;;;18.50;96.60;;;;;;5050807;28;20062;-88
2022/10/07 12:31:34;;;;;;;5.47;0.65;;;18.50;96.10;;;;;;5050809;28;20049;-88
2022/10/07 12:34:10;;;;;;;10.70;0.70;;;18.50;95.80;;;;;;5046894;28;20499;-88
2022/10/07 12:36:40;;;;;;;8.30;0.77;;;18.50;95.90;;;;;;5042071;28;20132;-89
2022/10/07 12:39:08;;;;;;;5.55;0.50;;;18.50;95.60;;;;;;5053715;28;20025;-88
2022/10/07 12:41:34;;;;;;;9.68;1.02;;;18.50;95.60;;;;;;5047055;28;20033;-88
2022/10/07 12:44:30;;;;;;;7.00;0.50;;;18.50;95.20;;;;;;5036917;28;20516;-88
2022/10/07 12:47:05;;;;;;;9.75;0.60;;;18.60;95.70;;;;;;5035411;28;20108;-88
2022/10/07 12:49:43;;;;;;;8.75;0.82;;;18.70;95.60;;;;;;5050096;28;20404;-88
2022/10/07 12:52:22;;;;;;;6.82;0.50;;;18.70;95.10;;;;;;5042940;28;20028;-88
2022/10/07 12:54:57;;;;;;;10.30;1.50;;;18.70;95.10;;;;;;5050240;28;20085;-88
2022/10/07 12:57:29;;;;;;;7.15;0.55;;;18.70;95.20;;;;;;5048492;28;20025;-87
2022/10/07 13:00:12;;;;;;;6.75;0.70;;;18.80;95.30;;;;;;5053413;28;20432;-88
2022/10/07 13:03:23;;;;;;;5.78;1.08;;;18.80;95.10;;;;;;5050032;28;20412;-87
2022/10/07 13:06:27;;;;;;;6.50;0.50;;;18.80;94.90;;;;;;5043671;28;20036;-88
2022/10/07 13:09:12;;;;;;;7.50;0.82;;;18.80;94.90;;;;;;5042081;28;20064;-87
2022/10/07 13:12:05;;;;;;;7.20;0.60;;;18.80;95.20;;;;;;5044188;28;20035;-86
2022/10/07 13:15:12;;;;;;;2.83;0.50;;;18.80;94.90;;;;;;5039514;28;20071;-87
2022/10/07 13:17:55;;;;;;;5.30;0.60;;;18.90;95.00;;;;;;5023309;28;20544;-88
2022/10/07 13:20:56;;;;;;;5.93;0.60;;;19.00;94.80;;;;;;5052594;28;20389;-88